TIN weather

Tindouf Airport
Tindouf, Tindouf Province, Algeria

Public forecast

Using degrees Celsius for public forecast. Weather courtesy of forecast.io.

Current aviation weather report (METAR) for Tindouf Airport

Retrieved 2019/12/06 05:00 UTC (24 minutes ago):

DAOF 060500Z 23004KT 9999 FEW040 10/09 Q1013

Aviation forecast (TAF) for Tindouf Airport

Forecast is more than 12 hours old.

Retrieved 2017/11/09 18:03 UTC (2 years ago):

TAF DAOF 091700Z 0918/1009 32010KT 9999 SCT040 BKN100 PROB30 TEMPO 0918/0921 FEW033CB